sensor_id;sensor_type;location;lat;lon;timestamp;temperature;humidity
63283;DHT22;49407;51.388;0.048;2022-07-23T00:00:50;19.10;81.80
63283;DHT22;49407;51.388;0.048;2022-07-23T00:03:17;19.10;81.80
63283;DHT22;49407;51.388;0.048;2022-07-23T00:05:44;19.10;81.90
63283;DHT22;49407;51.388;0.048;2022-07-23T00:08:12;19.10;82.00
63283;DHT22;49407;51.388;0.048;2022-07-23T00:10:41;19.00;82.00
63283;DHT22;49407;51.388;0.048;2022-07-23T00:13:10;19.00;82.00
63283;DHT22;49407;51.388;0.048;2022-07-23T00:15:38;19.10;82.00
63283;DHT22;49407;51.388;0.048;2022-07-23T00:18:05;19.00;82.00
63283;DHT22;49407;51.388;0.048;2022-07-23T00:20:32;19.00;82.10
63283;DHT22;49407;51.388;0.048;2022-07-23T00:22:59;19.00;82.10
63283;DHT22;49407;51.388;0.048;2022-07-23T00:25:26;19.00;82.10
63283;DHT22;49407;51.388;0.048;2022-07-23T00:27:57;19.00;82.10
63283;DHT22;49407;51.388;0.048;2022-07-23T00:30:46;19.00;82.20
63283;DHT22;49407;51.388;0.048;2022-07-23T00:33:13;18.90;82.30
63283;DHT22;49407;51.388;0.048;2022-07-23T00:35:43;18.90;82.20
63283;DHT22;49407;51.388;0.048;2022-07-23T00:38:10;18.90;82.30
63283;DHT22;49407;51.388;0.048;2022-07-23T00:40:38;18.90;82.40
63283;DHT22;49407;51.388;0.048;2022-07-23T00:43:06;18.90;82.50
63283;DHT22;49407;51.388;0.048;2022-07-23T00:45:33;18.90;82.50
63283;DHT22;49407;51.388;0.048;2022-07-23T00:48:01;18.80;82.50
63283;DHT22;49407;51.388;0.048;2022-07-23T00:50:29;18.80;82.50
63283;DHT22;49407;51.388;0.048;2022-07-23T00:52:56;18.90;82.60
63283;DHT22;49407;51.388;0.048;2022-07-23T00:55:23;18.90;82.60
63283;DHT22;49407;51.388;0.048;2022-07-23T00:57:50;18.90;82.60
63283;DHT22;49407;51.388;0.048;2022-07-23T01:00:19;18.90;82.60
63283;DHT22;49407;51.388;0.048;2022-07-23T01:02:46;18.90;82.60
63283;DHT22;49407;51.388;0.048;2022-07-23T01:05:14;18.90;82.70
63283;DHT22;49407;51.388;0.048;2022-07-23T01:07:45;18.90;82.50
63283;DHT22;49407;51.388;0.048;2022-07-23T01:10:13;18.80;82.50
63283;DHT22;49407;51.388;0.048;2022-07-23T01:13:10;18.80;82.60
63283;DHT22;49407;51.388;0.048;2022-07-23T01:15:38;18.80;82.60
63283;DHT22;49407;51.388;0.048;2022-07-23T01:18:07;18.80;82.60
63283;DHT22;49407;51.388;0.048;2022-07-23T01:20:36;18.70;82.80
63283;DHT22;49407;51.388;0.048;2022-07-23T01:23:04;18.70;82.90
63283;DHT22;49407;51.388;0.048;2022-07-23T01:25:31;18.70;83.10
63283;DHT22;49407;51.388;0.048;2022-07-23T01:28:03;18.60;83.10
63283;DHT22;49407;51.388;0.048;2022-07-23T01:30:30;18.60;83.40
63283;DHT22;49407;51.388;0.048;2022-07-23T01:33:00;18.50;83.60
63283;DHT22;49407;51.388;0.048;2022-07-23T01:35:27;18.50;83.70
63283;DHT22;49407;51.388;0.048;2022-07-23T01:37:58;18.40;83.80
63283;DHT22;49407;51.388;0.048;2022-07-23T01:40:25;18.50;83.90
63283;DHT22;49407;51.388;0.048;2022-07-23T01:42:53;18.40;84.00
63283;DHT22;49407;51.388;0.048;2022-07-23T01:45:21;18.40;84.10
63283;DHT22;49407;51.388;0.048;2022-07-23T01:47:50;18.40;84.10
63283;DHT22;49407;51.388;0.048;2022-07-23T01:50:18;18.50;84.20
63283;DHT22;49407;51.388;0.048;2022-07-23T01:53:00;18.50;84.20
63283;DHT22;49407;51.388;0.048;2022-07-23T01:55:28;18.60;84.20
63283;DHT22;49407;51.388;0.048;2022-07-23T01:57:55;18.60;84.20
63283;DHT22;49407;51.388;0.048;2022-07-23T02:00:27;18.60;84.20
63283;DHT22;49407;51.388;0.048;2022-07-23T02:02:54;18.70;84.20
63283;DHT22;49407;51.388;0.048;2022-07-23T02:05:22;18.60;84.00
63283;DHT22;49407;51.388;0.048;2022-07-23T02:07:49;18.70;84.00
63283;DHT22;49407;51.388;0.048;2022-07-23T02:10:16;18.70;84.00
63283;DHT22;49407;51.388;0.048;2022-07-23T02:12:43;18.70;84.00
63283;DHT22;49407;51.388;0.048;2022-07-23T02:15:10;18.70;84.00
63283;DHT22;49407;51.388;0.048;2022-07-23T02:17:39;18.70;84.10
63283;DHT22;49407;51.388;0.048;2022-07-23T02:20:10;18.70;84.10
63283;DHT22;49407;51.388;0.048;2022-07-23T02:22:38;18.70;84.20
63283;DHT22;49407;51.388;0.048;2022-07-23T02:25:07;18.70;84.30
63283;DHT22;49407;51.388;0.048;2022-07-23T02:27:34;18.60;84.20
63283;DHT22;49407;51.388;0.048;2022-07-23T02:30:05;18.70;84.30
63283;DHT22;49407;51.388;0.048;2022-07-23T02:32:34;18.70;84.40
63283;DHT22;49407;51.388;0.048;2022-07-23T02:35:02;18.70;84.40
63283;DHT22;49407;51.388;0.048;2022-07-23T02:37:30;18.70;84.40
63283;DHT22;49407;51.388;0.048;2022-07-23T02:39:59;18.70;84.40
63283;DHT22;49407;51.388;0.048;2022-07-23T02:42:26;18.70;84.40
63283;DHT22;49407;51.388;0.048;2022-07-23T02:44:53;18.70;84.30
63283;DHT22;49407;51.388;0.048;2022-07-23T02:47:20;18.70;84.30
63283;DHT22;49407;51.388;0.048;2022-07-23T02:49:47;18.60;84.30
63283;DHT22;49407;51.388;0.048;2022-07-23T02:52:14;18.60;84.50
63283;DHT22;49407;51.388;0.048;2022-07-23T02:54:42;18.50;84.70
63283;DHT22;49407;51.388;0.048;2022-07-23T02:57:11;18.50;84.80
63283;DHT22;49407;51.388;0.048;2022-07-23T02:59:38;18.50;84.80
63283;DHT22;49407;51.388;0.048;2022-07-23T03:02:05;18.50;84.70
63283;DHT22;49407;51.388;0.048;2022-07-23T03:04:32;18.50;84.60
63283;DHT22;49407;51.388;0.048;2022-07-23T03:07:00;18.50;84.60
63283;DHT22;49407;51.388;0.048;2022-07-23T03:09:27;18.50;84.60
63283;DHT22;49407;51.388;0.048;2022-07-23T03:11:59;18.50;84.60
63283;DHT22;49407;51.388;0.048;2022-07-23T03:14:26;18.50;84.80
63283;DHT22;49407;51.388;0.048;2022-07-23T03:16:55;18.50;84.70
63283;DHT22;49407;51.388;0.048;2022-07-23T03:19:22;18.40;84.80
63283;DHT22;49407;51.388;0.048;2022-07-23T03:24:55;18.20;85.20
63283;DHT22;49407;51.388;0.048;2022-07-23T03:27:27;18.20;85.10
63283;DHT22;49407;51.388;0.048;2022-07-23T03:29:56;18.20;85.30
63283;DHT22;49407;51.388;0.048;2022-07-23T03:32:24;18.10;85.30
63283;DHT22;49407;51.388;0.048;2022-07-23T03:34:52;18.00;85.40
63283;DHT22;49407;51.388;0.048;2022-07-23T03:37:20;18.00;85.60
63283;DHT22;49407;51.388;0.048;2022-07-23T03:39:47;17.90;85.70
63283;DHT22;49407;51.388;0.048;2022-07-23T03:42:14;17.90;85.80
63283;DHT22;49407;51.388;0.048;2022-07-23T03:44:44;17.80;86.50
63283;DHT22;49407;51.388;0.048;2022-07-23T03:47:11;17.80;86.10
63283;DHT22;49407;51.388;0.048;2022-07-23T03:49:38;17.80;86.20
63283;DHT22;49407;51.388;0.048;2022-07-23T03:52:06;17.80;86.30
63283;DHT22;49407;51.388;0.048;2022-07-23T03:54:32;17.80;86.40
63283;DHT22;49407;51.388;0.048;2022-07-23T03:57:01;17.80;86.50
63283;DHT22;49407;51.388;0.048;2022-07-23T03:59:30;17.80;86.60
63283;DHT22;49407;51.388;0.048;2022-07-23T04:01:58;17.80;86.60
63283;DHT22;49407;51.388;0.048;2022-07-23T04:04:26;17.80;86.60
63283;DHT22;49407;51.388;0.048;2022-07-23T04:06:53;17.90;86.60
63283;DHT22;49407;51.388;0.048;2022-07-23T04:09:20;17.90;86.60
63283;DHT22;49407;51.388;0.048;2022-07-23T04:11:48;17.90;86.60
63283;DHT22;49407;51.388;0.048;2022-07-23T04:14:16;17.90;86.70
63283;DHT22;49407;51.388;0.048;2022-07-23T04:16:45;17.90;86.80
63283;DHT22;49407;51.388;0.048;2022-07-23T04:19:12;17.90;86.80
63283;DHT22;49407;51.388;0.048;2022-07-23T04:21:56;17.90;86.90
63283;DHT22;49407;51.388;0.048;2022-07-23T04:24:23;17.90;87.20
63283;DHT22;49407;51.388;0.048;2022-07-23T04:26:50;17.90;87.30
63283;DHT22;49407;51.388;0.048;2022-07-23T04:29:17;17.90;87.30
63283;DHT22;49407;51.388;0.048;2022-07-23T04:31:44;18.00;87.40
63283;DHT22;49407;51.388;0.048;2022-07-23T04:34:11;18.10;87.40
63283;DHT22;49407;51.388;0.048;2022-07-23T04:36:39;18.10;87.40
63283;DHT22;49407;51.388;0.048;2022-07-23T04:39:06;18.10;87.40
63283;DHT22;49407;51.388;0.048;2022-07-23T04:41:35;18.20;87.50
63283;DHT22;49407;51.388;0.048;2022-07-23T04:44:02;18.20;87.50
63283;DHT22;49407;51.388;0.048;2022-07-23T04:46:30;18.20;87.50
63283;DHT22;49407;51.388;0.048;2022-07-23T04:48:57;18.20;87.60
63283;DHT22;49407;51.388;0.048;2022-07-23T04:51:27;18.10;87.60
63283;DHT22;49407;51.388;0.048;2022-07-23T04:53:55;18.10;87.80
63283;DHT22;49407;51.388;0.048;2022-07-23T04:56:23;18.00;87.90
63283;DHT22;49407;51.388;0.048;2022-07-23T04:58:50;17.90;88.00
63283;DHT22;49407;51.388;0.048;2022-07-23T05:01:18;17.90;88.20
63283;DHT22;49407;51.388;0.048;2022-07-23T05:03:45;17.80;88.50
63283;DHT22;49407;51.388;0.048;2022-07-23T05:06:15;17.80;88.80
63283;DHT22;49407;51.388;0.048;2022-07-23T05:08:42;17.70;88.90
63283;DHT22;49407;51.388;0.048;2022-07-23T05:11:10;17.70;89.10
63283;DHT22;49407;51.388;0.048;2022-07-23T05:13:37;17.80;89.30
63283;DHT22;49407;51.388;0.048;2022-07-23T05:16:07;17.80;89.40
63283;DHT22;49407;51.388;0.048;2022-07-23T05:18:35;17.80;89.40
63283;DHT22;49407;51.388;0.048;2022-07-23T05:21:21;17.90;89.40
63283;DHT22;49407;51.388;0.048;2022-07-23T05:23:49;17.90;89.50
63283;DHT22;49407;51.388;0.048;2022-07-23T05:26:16;18.00;89.30
63283;DHT22;49407;51.388;0.048;2022-07-23T05:28:43;18.10;89.30
63283;DHT22;49407;51.388;0.048;2022-07-23T05:31:17;18.20;89.30
63283;DHT22;49407;51.388;0.048;2022-07-23T05:33:46;18.30;89.20
63283;DHT22;49407;51.388;0.048;2022-07-23T05:36:13;18.50;89.10
63283;DHT22;49407;51.388;0.048;2022-07-23T05:38:48;18.70;89.00
63283;DHT22;49407;51.388;0.048;2022-07-23T05:41:17;18.80;88.70
63283;DHT22;49407;51.388;0.048;2022-07-23T05:43:44;19.00;88.50
63283;DHT22;49407;51.388;0.048;2022-07-23T05:46:13;19.10;88.20
63283;DHT22;49407;51.388;0.048;2022-07-23T05:48:42;19.30;88.00
63283;DHT22;49407;51.388;0.048;2022-07-23T05:52:06;19.50;87.60
63283;DHT22;49407;51.388;0.048;2022-07-23T05:54:51;19.70;87.20
63283;DHT22;49407;51.388;0.048;2022-07-23T05:57:18;19.80;86.80
63283;DHT22;49407;51.388;0.048;2022-07-23T06:00:11;19.90;86.80
63283;DHT22;49407;51.388;0.048;2022-07-23T06:02:40;20.00;86.20
63283;DHT22;49407;51.388;0.048;2022-07-23T06:05:09;20.10;86.00
63283;DHT22;49407;51.388;0.048;2022-07-23T06:07:38;20.20;85.80
63283;DHT22;49407;51.388;0.048;2022-07-23T06:10:10;20.30;85.40
63283;DHT22;49407;51.388;0.048;2022-07-23T06:12:37;20.40;85.20
63283;DHT22;49407;51.388;0.048;2022-07-23T06:15:05;20.50;84.90
63283;DHT22;49407;51.388;0.048;2022-07-23T06:17:38;20.70;84.60
63283;DHT22;49407;51.388;0.048;2022-07-23T06:20:11;20.70;84.20
63283;DHT22;49407;51.388;0.048;2022-07-23T06:22:39;20.80;83.70
63283;DHT22;49407;51.388;0.048;2022-07-23T06:25:07;20.90;83.30
63283;DHT22;49407;51.388;0.048;2022-07-23T06:27:45;21.00;83.00
63283;DHT22;49407;51.388;0.048;2022-07-23T06:30:13;21.10;82.70
63283;DHT22;49407;51.388;0.048;2022-07-23T06:32:45;21.20;82.40
63283;DHT22;49407;51.388;0.048;2022-07-23T06:35:14;21.20;81.90
63283;DHT22;49407;51.388;0.048;2022-07-23T06:37:41;21.30;81.60
63283;DHT22;49407;51.388;0.048;2022-07-23T06:40:09;21.40;81.30
63283;DHT22;49407;51.388;0.048;2022-07-23T06:42:36;21.40;80.70
63283;DHT22;49407;51.388;0.048;2022-07-23T06:45:06;21.50;80.30
63283;DHT22;49407;51.388;0.048;2022-07-23T06:47:35;21.50;79.70
63283;DHT22;49407;51.388;0.048;2022-07-23T06:50:03;21.60;79.30
63283;DHT22;49407;51.388;0.048;2022-07-23T06:52:30;21.70;79.00
63283;DHT22;49407;51.388;0.048;2022-07-23T06:54:58;21.80;78.70
63283;DHT22;49407;51.388;0.048;2022-07-23T06:57:25;21.90;78.20
63283;DHT22;49407;51.388;0.048;2022-07-23T06:59:53;22.10;77.70
63283;DHT22;49407;51.388;0.048;2022-07-23T07:02:21;22.20;77.20
63283;DHT22;49407;51.388;0.048;2022-07-23T07:04:49;22.40;76.80
63283;DHT22;49407;51.388;0.048;2022-07-23T07:07:16;22.50;76.20
63283;DHT22;49407;51.388;0.048;2022-07-23T07:09:43;22.60;75.90
63283;DHT22;49407;51.388;0.048;2022-07-23T07:12:12;22.70;75.40
63283;DHT22;49407;51.388;0.048;2022-07-23T07:14:39;22.70;75.00
63283;DHT22;49407;51.388;0.048;2022-07-23T07:17:06;22.70;74.90
63283;DHT22;49407;51.388;0.048;2022-07-23T07:19:33;22.80;74.50
63283;DHT22;49407;51.388;0.048;2022-07-23T07:22:02;22.80;74.10
63283;DHT22;49407;51.388;0.048;2022-07-23T07:24:30;22.90;73.60
63283;DHT22;49407;51.388;0.048;2022-07-23T07:27:04;23.00;73.60
63283;DHT22;49407;51.388;0.048;2022-07-23T07:29:31;23.10;73.10
63283;DHT22;49407;51.388;0.048;2022-07-23T07:31:58;23.20;72.60
63283;DHT22;49407;51.388;0.048;2022-07-23T07:34:25;23.30;72.60
63283;DHT22;49407;51.388;0.048;2022-07-23T07:36:52;23.40;72.20
63283;DHT22;49407;51.388;0.048;2022-07-23T07:39:19;23.50;71.60
63283;DHT22;49407;51.388;0.048;2022-07-23T07:41:48;23.70;71.20
63283;DHT22;49407;51.388;0.048;2022-07-23T07:44:15;23.80;70.70
63283;DHT22;49407;51.388;0.048;2022-07-23T07:46:43;23.90;69.50
63283;DHT22;49407;51.388;0.048;2022-07-23T07:49:10;24.10;69.00
63283;DHT22;49407;51.388;0.048;2022-07-23T07:51:43;24.10;68.10
63283;DHT22;49407;51.388;0.048;2022-07-23T07:54:11;24.10;67.70
63283;DHT22;49407;51.388;0.048;2022-07-23T07:56:39;24.20;67.40
63283;DHT22;49407;51.388;0.048;2022-07-23T07:59:07;24.30;66.70
63283;DHT22;49407;51.388;0.048;2022-07-23T08:04:41;24.50;65.80
63283;DHT22;49407;51.388;0.048;2022-07-23T08:07:08;24.60;65.40
63283;DHT22;49407;51.388;0.048;2022-07-23T08:09:35;24.70;64.60
63283;DHT22;49407;51.388;0.048;2022-07-23T08:12:02;24.70;64.10
63283;DHT22;49407;51.388;0.048;2022-07-23T08:14:29;24.80;63.60
63283;DHT22;49407;51.388;0.048;2022-07-23T08:16:56;24.90;63.30
63283;DHT22;49407;51.388;0.048;2022-07-23T08:19:40;25.00;63.20
63283;DHT22;49407;51.388;0.048;2022-07-23T08:22:07;25.10;63.00
63283;DHT22;49407;51.388;0.048;2022-07-23T08:24:34;25.20;62.40
63283;DHT22;49407;51.388;0.048;2022-07-23T08:27:01;25.30;62.10
63283;DHT22;49407;51.388;0.048;2022-07-23T08:29:27;25.30;61.90
63283;DHT22;49407;51.388;0.048;2022-07-23T08:32:15;25.30;61.40
63283;DHT22;49407;51.388;0.048;2022-07-23T08:35:03;25.40;60.50
63283;DHT22;49407;51.388;0.048;2022-07-23T08:37:30;25.50;59.90
63283;DHT22;49407;51.388;0.048;2022-07-23T08:39:56;25.60;59.70
63283;DHT22;49407;51.388;0.048;2022-07-23T08:42:24;25.60;59.50
63283;DHT22;49407;51.388;0.048;2022-07-23T08:44:51;25.70;59.70
63283;DHT22;49407;51.388;0.048;2022-07-23T08:47:18;25.80;59.60
63283;DHT22;49407;51.388;0.048;2022-07-23T08:50:05;25.90;59.60
63283;DHT22;49407;51.388;0.048;2022-07-23T08:52:34;25.90;59.20
63283;DHT22;49407;51.388;0.048;2022-07-23T08:55:01;26.00;59.10
63283;DHT22;49407;51.388;0.048;2022-07-23T08:57:28;26.10;59.30
63283;DHT22;49407;51.388;0.048;2022-07-23T09:03:01;26.20;57.70
63283;DHT22;49407;51.388;0.048;2022-07-23T09:05:29;26.20;57.40
63283;DHT22;49407;51.388;0.048;2022-07-23T09:08:09;26.30;57.30
63283;DHT22;49407;51.388;0.048;2022-07-23T09:13:52;26.40;56.00
63283;DHT22;49407;51.388;0.048;2022-07-23T09:16:28;26.50;56.20
63283;DHT22;49407;51.388;0.048;2022-07-23T09:19:01;26.60;55.70
63283;DHT22;49407;51.388;0.048;2022-07-23T09:21:32;26.70;55.20
63283;DHT22;49407;51.388;0.048;2022-07-23T09:26:40;26.90;53.30
63283;DHT22;49407;51.388;0.048;2022-07-23T09:29:19;26.90;53.30
63283;DHT22;49407;51.388;0.048;2022-07-23T09:34:28;27.00;51.80
63283;DHT22;49407;51.388;0.048;2022-07-23T09:36:58;27.00;52.60
63283;DHT22;49407;51.388;0.048;2022-07-23T09:39:33;27.20;51.40
63283;DHT22;49407;51.388;0.048;2022-07-23T09:42:17;27.20;51.00
63283;DHT22;49407;51.388;0.048;2022-07-23T09:44:52;27.30;50.30
63283;DHT22;49407;51.388;0.048;2022-07-23T09:47:20;27.40;50.30
63283;DHT22;49407;51.388;0.048;2022-07-23T09:50:06;27.50;50.60
63283;DHT22;49407;51.388;0.048;2022-07-23T09:52:42;27.60;50.20
63283;DHT22;49407;51.388;0.048;2022-07-23T09:55:10;27.80;50.00
63283;DHT22;49407;51.388;0.048;2022-07-23T09:57:37;27.90;49.70
63283;DHT22;49407;51.388;0.048;2022-07-23T10:00:09;27.90;49.00
63283;DHT22;49407;51.388;0.048;2022-07-23T10:02:38;27.80;49.10
63283;DHT22;49407;51.388;0.048;2022-07-23T10:05:24;27.90;49.60
63283;DHT22;49407;51.388;0.048;2022-07-23T10:08:12;28.10;49.70
63283;DHT22;49407;51.388;0.048;2022-07-23T10:11:00;28.40;49.30
63283;DHT22;49407;51.388;0.048;2022-07-23T10:13:46;28.70;48.80
63283;DHT22;49407;51.388;0.048;2022-07-23T10:16:49;29.10;48.40
63283;DHT22;49407;51.388;0.048;2022-07-23T10:19:17;29.50;47.60
63283;DHT22;49407;51.388;0.048;2022-07-23T10:21:56;29.70;46.80
63283;DHT22;49407;51.388;0.048;2022-07-23T10:27:12;30.10;45.60
63283;DHT22;49407;51.388;0.048;2022-07-23T10:30:20;30.30;44.90
63283;DHT22;49407;51.388;0.048;2022-07-23T10:33:09;30.50;44.70
63283;DHT22;49407;51.388;0.048;2022-07-23T10:35:47;30.70;43.90
63283;DHT22;49407;51.388;0.048;2022-07-23T10:38:20;30.90;42.90
63283;DHT22;49407;51.388;0.048;2022-07-23T10:41:03;31.00;42.20
63283;DHT22;49407;51.388;0.048;2022-07-23T10:43:31;31.10;41.70
63283;DHT22;49407;51.388;0.048;2022-07-23T10:46:21;31.20;40.60
63283;DHT22;49407;51.388;0.048;2022-07-23T10:49:29;31.30;40.30
63283;DHT22;49407;51.388;0.048;2022-07-23T10:52:20;31.40;40.30
63283;DHT22;49407;51.388;0.048;2022-07-23T10:54:49;31.70;39.70
63283;DHT22;49407;51.388;0.048;2022-07-23T10:57:21;31.90;39.40
63283;DHT22;49407;51.388;0.048;2022-07-23T11:02:44;32.10;38.90
63283;DHT22;49407;51.388;0.048;2022-07-23T11:05:17;32.30;38.70
63283;DHT22;49407;51.388;0.048;2022-07-23T11:10:40;32.60;38.00
63283;DHT22;49407;51.388;0.048;2022-07-23T11:13:30;32.80;37.80
63283;DHT22;49407;51.388;0.048;2022-07-23T11:16:04;32.80;37.00
63283;DHT22;49407;51.388;0.048;2022-07-23T11:24:15;33.00;36.40
63283;DHT22;49407;51.388;0.048;2022-07-23T11:26:49;33.10;36.10
63283;DHT22;49407;51.388;0.048;2022-07-23T11:36:56;33.70;35.30
63283;DHT22;49407;51.388;0.048;2022-07-23T11:39:26;33.90;35.10
63283;DHT22;49407;51.388;0.048;2022-07-23T11:41:55;34.10;35.80
63283;DHT22;49407;51.388;0.048;2022-07-23T11:44:26;34.40;34.60
63283;DHT22;49407;51.388;0.048;2022-07-23T11:47:00;34.60;33.90
63283;DHT22;49407;51.388;0.048;2022-07-23T11:49:28;34.80;33.50
63283;DHT22;49407;51.388;0.048;2022-07-23T11:52:14;35.00;33.10
63283;DHT22;49407;51.388;0.048;2022-07-23T11:54:56;35.30;32.90
63283;DHT22;49407;51.388;0.048;2022-07-23T11:57:29;35.50;32.80
63283;DHT22;49407;51.388;0.048;2022-07-23T12:00:06;35.70;32.80
63283;DHT22;49407;51.388;0.048;2022-07-23T12:02:42;35.90;32.10
63283;DHT22;49407;51.388;0.048;2022-07-23T12:05:20;35.90;32.20
63283;DHT22;49407;51.388;0.048;2022-07-23T12:07:49;36.20;32.40
63283;DHT22;49407;51.388;0.048;2022-07-23T12:10:23;36.50;31.70
63283;DHT22;49407;51.388;0.048;2022-07-23T12:13:05;36.60;31.20
63283;DHT22;49407;51.388;0.048;2022-07-23T12:15:35;36.50;31.10
63283;DHT22;49407;51.388;0.048;2022-07-23T12:18:06;36.30;30.50
63283;DHT22;49407;51.388;0.048;2022-07-23T12:20:46;35.90;30.70
63283;DHT22;49407;51.388;0.048;2022-07-23T12:23:17;35.90;31.00
63283;DHT22;49407;51.388;0.048;2022-07-23T12:25:48;36.00;30.90
63283;DHT22;49407;51.388;0.048;2022-07-23T12:28:28;36.10;30.80
63283;DHT22;49407;51.388;0.048;2022-07-23T12:30:57;36.30;30.60
63283;DHT22;49407;51.388;0.048;2022-07-23T12:33:29;36.50;30.50
63283;DHT22;49407;51.388;0.048;2022-07-23T12:36:00;36.90;30.50
63283;DHT22;49407;51.388;0.048;2022-07-23T12:38:36;37.30;31.00
63283;DHT22;49407;51.388;0.048;2022-07-23T12:41:04;37.80;30.30
63283;DHT22;49407;51.388;0.048;2022-07-23T12:43:43;38.10;29.80
63283;DHT22;49407;51.388;0.048;2022-07-23T12:46:34;38.30;29.60
63283;DHT22;49407;51.388;0.048;2022-07-23T12:49:01;38.50;29.50
63283;DHT22;49407;51.388;0.048;2022-07-23T12:51:30;38.80;29.20
63283;DHT22;49407;51.388;0.048;2022-07-23T12:54:05;38.70;29.30
63283;DHT22;49407;51.388;0.048;2022-07-23T12:56:35;38.80;29.40
63283;DHT22;49407;51.388;0.048;2022-07-23T12:59:11;39.00;28.90
63283;DHT22;49407;51.388;0.048;2022-07-23T13:01:43;39.00;28.60
63283;DHT22;49407;51.388;0.048;2022-07-23T13:04:23;38.90;28.80
63283;DHT22;49407;51.388;0.048;2022-07-23T13:06:56;39.10;28.90
63283;DHT22;49407;51.388;0.048;2022-07-23T13:09:33;39.50;28.90
63283;DHT22;49407;51.388;0.048;2022-07-23T13:12:08;39.90;28.70
63283;DHT22;49407;51.388;0.048;2022-07-23T13:14:37;40.10;28.40
63283;DHT22;49407;51.388;0.048;2022-07-23T13:17:05;40.20;28.20
63283;DHT22;49407;51.388;0.048;2022-07-23T13:19:33;40.20;28.60
63283;DHT22;49407;51.388;0.048;2022-07-23T13:22:01;40.30;27.90
63283;DHT22;49407;51.388;0.048;2022-07-23T13:24:34;40.50;27.80
63283;DHT22;49407;51.388;0.048;2022-07-23T13:27:04;40.60;27.80
63283;DHT22;49407;51.388;0.048;2022-07-23T13:29:33;40.50;27.40
63283;DHT22;49407;51.388;0.048;2022-07-23T13:32:02;40.30;27.40
63283;DHT22;49407;51.388;0.048;2022-07-23T13:34:39;40.00;27.40
63283;DHT22;49407;51.388;0.048;2022-07-23T13:37:08;39.90;27.50
63283;DHT22;49407;51.388;0.048;2022-07-23T13:39:35;40.00;27.50
63283;DHT22;49407;51.388;0.048;2022-07-23T13:42:04;40.20;27.50
63283;DHT22;49407;51.388;0.048;2022-07-23T13:44:34;40.40;27.50
63283;DHT22;49407;51.388;0.048;2022-07-23T13:47:02;40.60;27.50
63283;DHT22;49407;51.388;0.048;2022-07-23T13:49:30;40.70;27.40
63283;DHT22;49407;51.388;0.048;2022-07-23T13:51:57;40.80;27.20
63283;DHT22;49407;51.388;0.048;2022-07-23T13:54:24;41.00;27.30
63283;DHT22;49407;51.388;0.048;2022-07-23T13:56:54;41.00;27.00
63283;DHT22;49407;51.388;0.048;2022-07-23T13:59:22;40.80;27.00
63283;DHT22;49407;51.388;0.048;2022-07-23T14:01:53;40.80;27.20
63283;DHT22;49407;51.388;0.048;2022-07-23T14:04:40;40.90;27.10
63283;DHT22;49407;51.388;0.048;2022-07-23T14:07:08;40.90;27.20
63283;DHT22;49407;51.388;0.048;2022-07-23T14:09:36;41.10;27.30
63283;DHT22;49407;51.388;0.048;2022-07-23T14:12:04;41.20;27.90
63283;DHT22;49407;51.388;0.048;2022-07-23T14:14:32;41.10;27.40
63283;DHT22;49407;51.388;0.048;2022-07-23T14:23:10;41.20;28.10
63283;DHT22;49407;51.388;0.048;2022-07-23T14:25:57;41.10;27.70
63283;DHT22;49407;51.388;0.048;2022-07-23T14:28:24;40.90;27.70
63283;DHT22;49407;51.388;0.048;2022-07-23T14:30:51;40.90;27.90
63283;DHT22;49407;51.388;0.048;2022-07-23T14:33:19;40.90;27.90
63283;DHT22;49407;51.388;0.048;2022-07-23T14:35:47;40.90;28.00
63283;DHT22;49407;51.388;0.048;2022-07-23T14:38:14;40.70;28.10
63283;DHT22;49407;51.388;0.048;2022-07-23T14:40:41;40.40;28.30
63283;DHT22;49407;51.388;0.048;2022-07-23T14:43:09;40.00;28.60
63283;DHT22;49407;51.388;0.048;2022-07-23T14:45:38;39.70;28.90
63283;DHT22;49407;51.388;0.048;2022-07-23T14:48:08;39.50;29.10
63283;DHT22;49407;51.388;0.048;2022-07-23T14:50:54;39.20;29.30
63283;DHT22;49407;51.388;0.048;2022-07-23T14:53:24;38.80;29.60
63283;DHT22;49407;51.388;0.048;2022-07-23T14:55:51;38.50;29.90
63283;DHT22;49407;51.388;0.048;2022-07-23T14:58:21;38.30;30.00
63283;DHT22;49407;51.388;0.048;2022-07-23T15:00:48;37.90;30.40
63283;DHT22;49407;51.388;0.048;2022-07-23T15:03:15;37.70;30.80
63283;DHT22;49407;51.388;0.048;2022-07-23T15:05:42;37.60;30.80
63283;DHT22;49407;51.388;0.048;2022-07-23T15:08:12;37.60;30.90
63283;DHT22;49407;51.388;0.048;2022-07-23T15:10:40;37.80;31.00
63283;DHT22;49407;51.388;0.048;2022-07-23T15:13:07;37.90;30.80
63283;DHT22;49407;51.388;0.048;2022-07-23T15:15:34;37.80;30.90
63283;DHT22;49407;51.388;0.048;2022-07-23T15:18:01;37.70;31.10
63283;DHT22;49407;51.388;0.048;2022-07-23T15:20:29;37.50;31.40
63283;DHT22;49407;51.388;0.048;2022-07-23T15:23:05;37.60;31.60
63283;DHT22;49407;51.388;0.048;2022-07-23T15:25:34;37.90;31.50
63283;DHT22;49407;51.388;0.048;2022-07-23T15:28:01;37.90;31.40
63283;DHT22;49407;51.388;0.048;2022-07-23T15:30:29;37.90;31.50
63283;DHT22;49407;51.388;0.048;2022-07-23T15:32:56;37.50;31.80
63283;DHT22;49407;51.388;0.048;2022-07-23T15:35:24;37.00;32.40
63283;DHT22;49407;51.388;0.048;2022-07-23T15:37:51;36.80;32.80
63283;DHT22;49407;51.388;0.048;2022-07-23T15:40:20;36.60;33.00
63283;DHT22;49407;51.388;0.048;2022-07-23T15:42:48;36.60;33.10
63283;DHT22;49407;51.388;0.048;2022-07-23T15:45:15;36.70;33.20
63283;DHT22;49407;51.388;0.048;2022-07-23T15:47:44;36.90;33.10
63283;DHT22;49407;51.388;0.048;2022-07-23T15:50:11;37.20;32.80
63283;DHT22;49407;51.388;0.048;2022-07-23T15:52:38;36.90;33.00
63283;DHT22;49407;51.388;0.048;2022-07-23T15:55:05;36.40;33.60
63283;DHT22;49407;51.388;0.048;2022-07-23T15:57:42;35.80;34.30
63283;DHT22;49407;51.388;0.048;2022-07-23T16:00:11;35.30;35.00
63283;DHT22;49407;51.388;0.048;2022-07-23T16:02:38;34.80;35.60
63283;DHT22;49407;51.388;0.048;2022-07-23T16:05:06;34.30;36.20
63283;DHT22;49407;51.388;0.048;2022-07-23T16:07:33;33.80;36.80
63283;DHT22;49407;51.388;0.048;2022-07-23T16:10:07;33.40;37.40
63283;DHT22;49407;51.388;0.048;2022-07-23T16:12:35;33.00;37.90
63283;DHT22;49407;51.388;0.048;2022-07-23T16:15:03;32.80;38.30
63283;DHT22;49407;51.388;0.048;2022-07-23T16:17:33;32.60;38.70
63283;DHT22;49407;51.388;0.048;2022-07-23T16:20:01;32.40;39.00
63283;DHT22;49407;51.388;0.048;2022-07-23T16:22:31;32.20;39.30
63283;DHT22;49407;51.388;0.048;2022-07-23T16:24:58;32.10;39.50
63283;DHT22;49407;51.388;0.048;2022-07-23T16:27:25;32.10;39.90
63283;DHT22;49407;51.388;0.048;2022-07-23T16:29:52;31.90;40.10
63283;DHT22;49407;51.388;0.048;2022-07-23T16:32:19;31.90;40.40
63283;DHT22;49407;51.388;0.048;2022-07-23T16:34:46;31.80;40.70
63283;DHT22;49407;51.388;0.048;2022-07-23T16:37:14;31.60;40.90